Pagina principale
METAR-TAF:

METAR-TAF

Aeroporti :

Aeroporto internazionale di Banja Luka

Banja Luka, Bosnia-Erzegovina

latitudine: 44-47N, longitudine: 017-13E, altezza: 156 m

Osservazione

Il bollettino è stato emesso 10 minuti fa, alle 11:30 UTC
Vento 5 kt da direzioni variabili
Temperature 23°C
Umidità 27%
Pressione 1028 hPa
Visibilità 10 km o più
nessuna nube inferiore a 1500 m e nessun cumulonembo

METAR: LQBK 191130Z VRB05KT CAVOK 23/03 Q1028 NOSIG

Ora: 13:40 (11:40 UTC)

Previsione

Il bollettino è stato emesso 6 ore e 40 minuti fa, alle 05:00 UTC
Previsione valida dal 19 alle 06 UTC al 20 alle 06 UTC
Vento 2 kt da direzioni variabili
Visibilità 10 km o più
nessuna nube inferiore a 1500 m e nessun cumulonembo
Temporaneamente
dal 19 alle 09 UTC al 19 alle 15 UTC
Vento 10 kt da est

TAF: LQBK 190500Z 1906/2006 VRB02KT CAVOK TX27/1914Z TN06/1906Z TEMPO 1909/1915 09010KT

Osservazioni e previsioni meteorologiche di più di 4000 aeroporti (messaggi METAR e TAF).

Le stazioni disponibili sono rappresentate dai dischi gialli e rossi sulla carta.

Puntare il mouse per vedere il nome della stazione.

Clicca sopra per visualizzare le osservazioni e previsioni meteorologiche.

Per cambiare la mappa : fare clic sui pulsanti verdi con una croce nera per ingrandire, il pulsante verde con un trattino per diminuire, o sulla freccia verde per le mappe adiacenti.


METAR-TAF: